Time;durP1;ratioP1;P1;durP2;ratioP2;P2;SDS_P1;SDS_P2;PMS_P1;PMS_P2;Temp;Humidity;BMP_temperature;BMP_pressure;BME280_temperature;BME280_humidity;BME280_pressure;Samples;Min_cycle;Max_cycle;Signal;HPM_P1;HPM_P2
2022/06/05 00:03:19;;;;;;;8.85;8.02;;;;;;;17.59;64.28;98156.72;10085270;29;20445;-82
2022/06/05 00:09:01;;;;;;;10.13;8.60;;;;;;;17.51;64.19;98161.97;10060772;29;20057;-81
2022/06/05 00:14:22;;;;;;;9.57;8.52;;;;;;;17.44;64.55;98160.94;10071961;29;20057;-82
2022/06/05 00:19:45;;;;;;;9.68;8.48;;;;;;;17.38;65.06;98155.75;10071433;29;20061;-83
2022/06/05 00:25:07;;;;;;;10.50;9.45;;;;;;;17.29;64.80;98170.84;10059253;29;20053;-83
2022/06/05 00:30:52;;;;;;;11.52;10.38;;;;;;;17.23;65.59;98181.09;10058721;29;20056;-81
2022/06/05 00:36:23;;;;;;;11.00;9.45;;;;;;;17.22;65.51;98183.19;10083972;29;20058;-81
2022/06/05 00:41:54;;;;;;;11.13;9.95;;;;;;;17.13;65.60;98181.34;10070932;29;20180;-83
2022/06/05 00:47:17;;;;;;;10.55;9.00;;;;;;;17.07;65.59;98190.22;10066487;29;20060;-82
2022/06/05 00:52:41;;;;;;;10.70;9.63;;;;;;;16.99;65.95;98189.84;10055416;29;20049;-82
2022/06/05 00:58:01;;;;;;;;;;;;;;;16.91;66.70;98188.69;10055725;29;20053;-83
2022/06/05 01:03:23;;;;;;;10.20;9.10;;;;;;;16.80;66.21;98179.75;10078776;29;19924;-82
2022/06/05 01:08:44;;;;;;;10.98;9.88;;;;;;;16.78;66.55;98188.06;10070060;29;20050;-84
2022/06/05 01:14:27;;;;;;;10.65;9.57;;;;;;;16.71;66.55;98183.50;10067393;29;20056;-83
2022/06/05 01:20:14;;;;;;;10.95;9.85;;;;;;;16.65;67.22;98190.88;10090875;29;20053;-83
2022/06/05 01:25:58;;;;;;;10.32;9.27;;;;;;;16.62;67.04;98186.53;10091654;29;20049;-83
2022/06/05 01:31:29;;;;;;;10.93;9.27;;;;;;;16.57;67.07;98179.94;10069897;29;20052;-83
2022/06/05 01:37:00;;;;;;;11.90;9.13;;;;;;;16.53;66.99;98182.56;10082417;29;20060;-84
2022/06/05 01:42:32;;;;;;;12.05;10.70;;;;;;;16.47;67.29;98177.31;10082618;29;20049;-83
2022/06/05 01:47:54;;;;;;;11.15;10.07;;;;;;;16.43;67.38;98182.75;10082523;29;20061;-83
2022/06/05 01:53:19;;;;;;;10.98;9.90;;;;;;;16.37;67.54;98181.72;10082371;29;20518;-83
2022/06/05 01:58:45;;;;;;;11.00;9.90;;;;;;;16.29;67.75;98184.84;10082306;29;20519;-84
2022/06/05 02:04:17;;;;;;;10.70;9.60;;;;;;;16.25;68.38;98174.09;10069267;29;20408;-82
2022/06/05 02:09:46;;;;;;;11.88;10.68;;;;;;;16.27;68.26;98187.56;10082069;29;20057;-83
2022/06/05 02:15:07;;;;;;;11.43;10.32;;;;;;;16.22;68.24;98171.81;10069845;29;20053;-83
2022/06/05 02:20:28;;;;;;;11.50;10.30;;;;;;;16.17;68.35;98162.41;10078858;29;20060;-82
2022/06/05 02:25:48;;;;;;;12.27;11.05;;;;;;;16.14;68.83;98180.56;10075982;29;20065;-82
2022/06/05 02:31:44;;;;;;;11.70;10.55;;;;;;;16.11;68.57;98176.16;10062705;29;20065;-81
2022/06/05 02:37:11;;;;;;;11.50;10.38;;;;;;;16.08;68.98;98171.78;10075351;29;20070;-81
2022/06/05 02:42:34;;;;;;;13.02;11.70;;;;;;;16.03;69.02;98150.41;10075995;29;20415;-81
2022/06/05 02:48:19;;;;;;;11.38;10.27;;;;;;;15.99;69.06;98158.63;10062938;29;20499;-81
2022/06/05 03:07:37;;;;;;;12.80;11.50;;;;;;;15.97;69.40;98167.69;10087696;29;20061;-81
2022/06/05 03:13:01;;;;;;;12.65;11.45;;;;;;;16.01;69.12;98172.81;10074459;29;20503;-82
2022/06/05 03:18:21;;;;;;;13.73;12.43;;;;;;;16.00;69.06;98176.97;10074707;29;20060;-81
2022/06/05 03:24:10;;;;;;;11.55;10.43;;;;;;;16.06;69.19;98168.13;10073355;29;20062;-82
2022/06/05 03:29:33;;;;;;;12.65;11.35;;;;;;;16.09;69.30;98181.69;10059628;29;20084;-81
2022/06/05 03:34:54;;;;;;;11.90;10.68;;;;;;;16.15;69.31;98176.38;10060336;29;20510;-78
2022/06/05 03:40:16;;;;;;;13.73;11.35;;;;;;;16.29;69.04;98162.31;10073022;29;20053;-78
2022/06/05 03:45:36;;;;;;;13.57;12.27;;;;;;;16.34;69.29;98157.63;10059717;29;20056;-78
2022/06/05 03:59:17;;;;;;;14.00;12.52;;;;;;;16.63;69.55;98166.16;10100764;29;20080;-78
2022/06/05 04:05:07;;;;;;;12.93;11.68;;;;;;;16.77;69.23;98163.34;10058325;29;20045;-78
2022/06/05 04:10:28;;;;;;;13.38;11.98;;;;;;;16.89;69.06;98161.13;10028882;29;20427;-79
2022/06/05 04:15:48;;;;;;;12.95;11.65;;;;;;;16.95;69.03;98157.88;10037183;29;20058;-79
2022/06/05 04:21:11;;;;;;;12.63;11.40;;;;;;;17.06;69.02;98154.91;10031474;29;20054;-80
2022/06/05 04:26:33;;;;;;;12.20;10.98;;;;;;;17.25;68.99;98159.34;10029937;29;20102;-78
2022/06/05 04:31:54;;;;;;;12.35;11.15;;;;;;;17.37;68.69;98145.84;10031676;29;20461;-80
2022/06/05 04:37:14;;;;;;;12.48;10.63;;;;;;;17.51;68.32;98130.94;10029831;29;20094;-80
2022/06/05 04:42:36;;;;;;;12.43;10.40;;;;;;;17.67;67.67;98128.84;10031790;29;20049;-79
2022/06/05 04:47:57;;;;;;;11.40;10.40;;;;;;;17.77;67.44;98123.69;10043403;29;20057;-81
2022/06/05 04:53:19;;;;;;;11.25;10.07;;;;;;;17.86;67.18;98117.06;10031548;29;20151;-75
2022/06/05 04:58:39;;;;;;;12.15;10.98;;;;;;;18.10;66.98;98099.72;10042731;29;20421;-75
2022/06/05 05:04:04;;;;;;;12.30;10.45;;;;;;;18.28;66.67;98100.50;10050714;29;20081;-74
2022/06/05 05:09:25;;;;;;;12.43;10.93;;;;;;;18.56;66.42;98093.22;10068470;29;20115;-74
2022/06/05 05:14:46;;;;;;;11.32;10.10;;;;;;;18.88;65.79;98088.19;10056700;29;20049;-74
2022/06/05 05:20:07;;;;;;;11.40;10.30;;;;;;;19.16;64.47;98087.88;10068677;29;20065;-75
2022/06/05 05:25:28;;;;;;;13.48;10.32;;;;;;;19.47;65.03;98098.25;10055045;29;20057;-74
2022/06/05 05:30:49;;;;;;;12.80;10.07;;;;;;;19.78;63.89;98111.47;10056407;29;20057;-76
2022/06/05 05:36:10;;;;;;;11.25;10.07;;;;;;;20.14;63.04;98114.22;10068425;29;20113;-75
2022/06/05 05:47:16;;;;;;;11.77;9.77;;;;;;;21.10;61.42;98121.03;10071342;29;20671;-78
2022/06/05 05:52:37;;;;;;;10.10;9.07;;;;;;;21.76;60.28;98120.94;10054794;29;20128;-78
2022/06/05 05:57:58;;;;;;;9.75;8.73;;;;;;;22.48;58.05;98130.81;10072486;29;20064;-80
2022/06/05 06:03:19;;;;;;;10.05;9.05;;;;;;;23.39;54.79;98125.97;10062899;29;20068;-78
2022/06/05 06:08:40;;;;;;;10.43;8.90;;;;;;;24.51;53.43;98122.63;10063416;29;20065;-78
2022/06/05 06:14:01;;;;;;;8.68;7.78;;;;;;;28.30;44.91;98109.69;10075932;29;20065;-77
2022/06/05 06:19:21;;;;;;;8.40;7.25;;;;;;;35.47;34.07;98117.53;10075379;29;20514;-77
2022/06/05 06:24:42;;;;;;;8.07;7.18;;;;;;;39.90;27.09;98117.34;10075886;29;20064;-77
2022/06/05 06:30:03;;;;;;;8.13;6.25;;;;;;;41.58;23.61;98113.69;10075627;29;20049;-80
2022/06/05 06:35:24;;;;;;;7.22;6.10;;;;;;;43.38;19.26;98099.38;10075923;29;20057;-80
2022/06/05 06:40:45;;;;;;;6.87;6.13;;;;;;;44.42;17.52;98102.50;10062403;29;20068;-80
2022/06/05 06:46:11;;;;;;;4.88;4.47;;;;;;;46.75;16.93;98108.66;10065030;29;20063;-80
2022/06/05 06:51:33;;;;;;;3.95;3.65;;;;;;;47.50;15.39;98099.34;10061733;29;20045;-80
2022/06/05 06:56:55;;;;;;;4.20;3.47;;;;;;;47.88;14.07;98086.78;10049593;29;20412;-82
2022/06/05 07:02:20;;;;;;;4.72;2.97;;;;;;;48.58;13.11;98081.25;10061338;29;20415;-81
2022/06/05 07:07:41;;;;;;;3.63;3.20;;;;;;;48.53;12.04;98065.38;10074422;29;20061;-81
2022/06/05 07:13:03;;;;;;;3.85;3.05;;;;;;;49.24;12.57;98050.56;10061816;29;20060;-82
2022/06/05 07:18:28;;;;;;;3.28;2.33;;;;;;;50.02;10.53;98044.56;10061487;29;20136;-82
2022/06/05 07:23:50;;;;;;;3.03;2.10;;;;;;;49.96;10.86;98036.88;10061248;29;20076;-81
2022/06/05 07:29:16;;;;;;;4.80;2.08;;;;;;;50.54;9.71;98026.56;10073977;29;20132;-82
2022/06/05 07:34:38;;;;;;;2.50;1.92;;;;;;;49.07;10.60;98029.81;10061755;29;20161;-80
2022/06/05 07:40:07;;;;;;;2.65;1.60;;;;;;;50.58;10.47;98015.00;10062812;29;20087;-80
2022/06/05 07:45:29;;;;;;;3.05;1.60;;;;;;;51.06;9.57;98021.00;10060736;29;20068;-81
2022/06/05 07:57:12;;;;;;;2.60;1.40;;;;;;;52.35;8.14;98030.91;10067301;29;20579;-81
2022/06/05 08:02:38;;;;;;;3.22;1.48;;;;;;;52.71;7.27;98028.84;10059873;29;20077;-81
2022/06/05 08:08:00;;;;;;;3.83;1.20;;;;;;;49.51;8.13;98016.38;10058494;29;20144;-82
2022/06/05 08:13:51;;;;;;;2.22;1.20;;;;;;;47.19;10.08;98027.13;10058923;29;20415;-81
2022/06/05 08:19:47;;;;;;;2.55;1.20;;;;;;;45.31;11.96;98015.72;10080493;29;20131;-83
2022/06/05 08:25:09;;;;;;;2.33;1.38;;;;;;;46.41;11.07;98013.78;10054657;29;20049;-85
2022/06/05 08:30:31;;;;;;;3.28;1.58;;;;;;;48.28;10.47;98019.34;10044466;29;20132;-87
2022/06/05 08:35:53;;;;;;;3.10;1.20;;;;;;;49.98;8.70;98010.00;10071812;29;20057;-81
2022/06/05 08:41:28;;;;;;;1.90;1.25;;;;;;;50.05;8.88;98010.19;10043551;29;20075;-80
2022/06/05 08:47:20;;;;;;;;;;;;;;;;;;;;;
2022/06/05 08:53:12;;;;;;;3.28;1.50;;;;;;;50.95;8.62;97993.78;10112325;29;20464;-80
2022/06/05 08:59:33;;;;;;;1.80;1.10;;;;;;;51.08;7.57;97994.06;10056240;29;20492;-79
2022/06/05 09:05:05;;;;;;;2.88;1.25;;;;;;;50.72;7.90;97985.56;9983756;29;20074;-80
2022/06/05 09:10:48;;;;;;;2.17;1.00;;;;;;;51.16;8.19;97980.72;10090864;29;20068;-79
2022/06/05 09:16:45;;;;;;;1.17;1.00;;;;;;;50.97;7.86;97978.75;10116002;29;20069;-79
2022/06/05 09:22:16;;;;;;;3.33;1.35;;;;;;;50.06;8.28;97973.69;10075916;29;20400;-82
2022/06/05 09:27:48;;;;;;;2.22;1.20;;;;;;;50.92;8.27;97977.75;10079720;29;20053;-85
2022/06/05 09:33:17;;;;;;;1.10;1.00;;;;;;;51.30;7.71;97976.38;10086137;29;20519;-83
2022/06/05 09:39:38;;;;;;;2.10;0.82;;;;;;;48.28;9.35;97980.88;10080220;29;20492;-84
2022/06/05 09:45:35;;;;;;;1.90;0.90;;;;;;;47.83;9.69;97970.38;10074829;29;20056;-85
2022/06/05 09:50:58;;;;;;;0.80;0.60;;;;;;;47.83;9.74;97940.78;10075426;29;20061;-85
2022/06/05 10:02:24;;;;;;;0.73;0.65;;;;;;;48.55;8.44;97923.09;10087817;29;20063;-86
2022/06/05 10:07:49;;;;;;;1.00;0.80;;;;;;;48.17;8.46;97907.72;10063598;29;20080;-81
2022/06/05 10:13:44;;;;;;;2.55;0.75;;;;;;;47.85;8.50;97907.38;10061431;29;20061;-80
2022/06/05 10:19:51;;;;;;;2.78;0.70;;;;;;;47.89;8.42;97918.91;10105535;29;20052;-79
2022/06/05 10:25:43;;;;;;;0.95;0.68;;;;;;;47.36;8.59;97926.09;10094093;29;20458;-78
2022/06/05 10:31:24;;;;;;;2.80;0.90;;;;;;;47.61;8.36;97922.59;10080944;29;20135;-78
2022/06/05 10:37:03;;;;;;;1.00;0.90;;;;;;;47.63;8.45;97894.44;10076909;29;20084;-78
2022/06/05 10:42:48;;;;;;;1.77;0.90;;;;;;;48.13;8.03;97895.50;10074696;29;20488;-78
2022/06/05 10:48:24;;;;;;;1.17;0.80;;;;;;;47.12;8.32;97902.09;10072176;29;20144;-79
2022/06/05 10:53:51;;;;;;;0.73;0.32;;;;;;;46.50;8.88;97899.50;10074926;29;20122;-77
2022/06/05 10:59:38;;;;;;;1.63;0.60;;;;;;;44.50;8.97;97890.13;10075131;29;20053;-78
2022/06/05 11:05:22;;;;;;;1.52;0.60;;;;;;;39.32;13.88;97893.59;10067806;29;20134;-81
2022/06/05 11:17:04;;;;;;;1.63;0.70;;;;;;;35.50;17.06;97857.69;10048633;29;20519;-79
2022/06/05 11:22:26;;;;;;;1.95;0.88;;;;;;;34.23;19.14;97853.22;10048727;29;20449;-79
2022/06/05 11:28:09;;;;;;;1.70;1.20;;;;;;;32.47;22.11;97854.03;10048551;29;20504;-79
2022/06/05 11:33:32;;;;;;;2.70;1.50;;;;;;;32.60;21.90;97850.91;10047987;29;20467;-81
2022/06/05 11:39:02;;;;;;;2.72;1.13;;;;;;;33.34;21.63;97853.09;10047400;29;20401;-79
2022/06/05 11:44:33;;;;;;;1.30;1.13;;;;;;;33.12;21.76;97860.06;10047367;29;20088;-79
2022/06/05 11:50:04;;;;;;;1.52;1.30;;;;;;;32.21;23.16;97851.59;10047270;29;20436;-79
2022/06/05 11:56:16;;;;;;;4.25;1.50;;;;;;;32.14;23.57;97827.91;10047305;29;20136;-78
2022/06/05 12:01:43;;;;;;;3.60;1.40;;;;;;;31.85;23.56;97815.41;10055934;29;20061;-81
2022/06/05 12:07:06;;;;;;;3.75;1.35;;;;;;;32.18;23.93;97806.88;10047352;29;20053;-82
2022/06/05 12:12:32;;;;;;;1.63;1.30;;;;;;;32.09;24.07;97803.44;10046685;29;20058;-82
2022/06/05 12:18:00;;;;;;;1.45;1.20;;;;;;;31.86;24.44;97782.91;10046185;29;20105;-82
2022/06/05 12:23:28;;;;;;;3.38;1.25;;;;;;;31.40;24.80;97772.78;10046443;29;20198;-81
2022/06/05 12:29:19;;;;;;;1.70;1.40;;;;;;;31.97;25.02;97768.31;10088370;29;20472;-82
2022/06/05 12:35:02;;;;;;;2.33;1.70;;;;;;;31.61;24.88;97756.59;10083316;29;20108;-81
2022/06/05 12:40:29;;;;;;;1.65;1.25;;;;;;;31.79;24.80;97744.06;10058177;29;20124;-82
2022/06/05 12:45:57;;;;;;;2.58;1.58;;;;;;;31.63;25.17;97733.47;10055796;29;20053;-81
2022/06/05 12:51:24;;;;;;;3.47;1.30;;;;;;;30.84;25.81;97714.47;10054968;29;20049;-81
2022/06/05 12:56:50;;;;;;;2.78;1.50;;;;;;;31.56;26.02;97709.09;10078989;29;20132;-81
2022/06/05 13:02:25;;;;;;;4.75;1.83;;;;;;;31.27;25.49;97702.34;10071033;29;20057;-81
2022/06/05 13:07:52;;;;;;;1.85;1.60;;;;;;;29.89;27.50;97708.31;10108677;29;20538;-81
2022/06/05 13:13:16;;;;;;;2.22;1.60;;;;;;;29.59;27.91;97697.09;10109093;29;20070;-81
2022/06/05 13:19:00;;;;;;;3.55;1.55;;;;;;;29.93;27.50;97673.75;10121366;29;20056;-81
2022/06/05 13:25:06;;;;;;;3.10;1.50;;;;;;;30.18;26.30;97685.00;10108968;29;20406;-81
2022/06/05 13:30:28;;;;;;;1.23;1.00;;;;;;;30.23;26.23;97662.66;10090583;29;20068;-80
2022/06/05 13:36:04;;;;;;;3.35;1.25;;;;;;;29.90;27.11;97657.22;10057419;29;20079;-80
2022/06/05 13:41:30;;;;;;;1.83;1.33;;;;;;;29.76;26.86;97643.72;10057186;29;20059;-80
2022/06/05 13:47:08;;;;;;;3.70;1.85;;;;;;;29.12;27.33;97625.59;10057107;29;20049;-80
2022/06/05 13:52:36;;;;;;;3.63;1.20;;;;;;;28.91;28.01;97627.19;10082654;29;20053;-81
2022/06/05 13:58:17;;;;;;;2.40;1.35;;;;;;;28.92;27.81;97611.38;10057182;29;20061;-80
2022/06/05 14:03:47;;;;;;;4.27;1.60;;;;;;;29.12;27.81;97604.75;10069098;29;20056;-79
2022/06/05 14:09:10;;;;;;;2.40;1.30;;;;;;;29.34;26.99;97607.47;10069538;29;20053;-79
2022/06/05 14:14:40;;;;;;;1.70;1.45;;;;;;;29.45;26.29;97610.94;10056536;29;20068;-80
2022/06/05 14:20:05;;;;;;;2.75;1.30;;;;;;;29.55;26.39;97608.00;10063297;29;20412;-80
2022/06/05 14:25:46;;;;;;;1.93;1.30;;;;;;;29.70;25.92;97611.44;10077095;29;20401;-81
2022/06/05 14:31:09;;;;;;;2.58;1.08;;;;;;;29.39;25.42;97602.38;10063737;29;20064;-80
2022/06/05 14:36:38;;;;;;;3.08;1.30;;;;;;;29.14;25.90;97602.56;10075610;29;20052;-82
2022/06/05 14:42:04;;;;;;;1.55;1.10;;;;;;;29.34;26.27;97599.53;10087057;29;20109;-80
2022/06/05 14:47:46;;;;;;;2.22;1.38;;;;;;;29.34;26.18;97607.47;10059898;29;20049;-81
2022/06/05 14:53:27;;;;;;;1.17;0.85;;;;;;;29.10;25.96;97596.88;10073128;29;20404;-81
2022/06/05 14:58:59;;;;;;;3.47;1.10;;;;;;;29.25;25.98;97592.44;10069949;29;20148;-82
2022/06/05 15:04:32;;;;;;;3.15;1.30;;;;;;;29.50;26.25;97589.34;10085367;29;20143;-83
2022/06/05 15:10:16;;;;;;;2.13;1.50;;;;;;;29.85;25.80;97581.78;10062891;29;20419;-82
2022/06/05 15:15:41;;;;;;;1.85;1.10;;;;;;;29.81;26.00;97581.81;10074262;29;20512;-84
2022/06/05 15:21:12;;;;;;;1.90;1.10;;;;;;;29.43;26.29;97576.44;10061565;29;20056;-82
2022/06/05 15:27:03;;;;;;;2.20;1.25;;;;;;;29.34;26.40;97587.34;10072948;29;20496;-82
2022/06/05 15:32:34;;;;;;;3.13;1.08;;;;;;;29.16;26.74;97588.22;10087530;29;20053;-88
2022/06/05 15:38:17;;;;;;;3.30;1.20;;;;;;;29.21;27.05;97566.59;10081351;29;20060;-80
2022/06/05 15:43:49;;;;;;;2.45;1.20;;;;;;;29.04;26.77;97573.94;10113929;29;20053;-77
2022/06/05 15:49:22;;;;;;;2.70;1.30;;;;;;;28.65;26.90;97556.25;10111761;29;20060;-79
2022/06/05 15:55:08;;;;;;;2.00;1.15;;;;;;;28.34;27.06;97550.00;10094325;29;20502;-80
2022/06/05 16:00:38;;;;;;;3.47;1.60;;;;;;;28.04;27.48;97556.59;10074656;29;20575;-80
2022/06/05 16:05:59;;;;;;;1.85;1.52;;;;;;;28.02;27.51;97554.47;10059464;29;20056;-81
2022/06/05 16:11:30;;;;;;;3.10;1.50;;;;;;;27.94;27.66;97548.75;10059259;29;20052;-78
2022/06/05 16:17:23;;;;;;;2.95;1.40;;;;;;;27.83;27.53;97550.22;10072450;29;20128;-77
2022/06/05 16:23:21;;;;;;;2.40;1.47;;;;;;;27.54;27.85;97547.44;10047969;29;20120;-78
2022/06/05 16:28:44;;;;;;;2.63;1.50;;;;;;;27.39;28.01;97568.94;10098105;29;20052;-77
2022/06/05 16:34:08;;;;;;;4.07;1.40;;;;;;;27.16;28.04;97556.09;10059336;29;20049;-79
2022/06/05 16:39:30;;;;;;;1.40;1.13;;;;;;;27.14;28.15;97550.38;10070609;29;20053;-82
2022/06/05 16:45:00;;;;;;;1.50;1.30;;;;;;;27.40;27.76;97538.84;10070963;29;20103;-82
2022/06/05 16:50:33;;;;;;;2.13;1.20;;;;;;;27.59;27.20;97542.41;10083702;29;20411;-80
2022/06/05 16:56:01;;;;;;;2.58;1.23;;;;;;;27.76;27.00;97540.22;10070245;29;20057;-81
2022/06/05 17:01:51;;;;;;;1.30;0.95;;;;;;;27.32;27.42;97547.50;10057423;29;20132;-82
2022/06/05 17:07:29;;;;;;;2.25;1.65;;;;;;;27.14;27.42;97538.94;10060177;29;20060;-82
2022/06/05 17:13:04;;;;;;;3.92;1.38;;;;;;;27.01;28.21;97532.44;10057733;29;20484;-85
2022/06/05 17:18:39;;;;;;;2.58;1.27;;;;;;;27.05;28.07;97516.03;10070091;29;20445;-81
2022/06/05 17:24:20;;;;;;;2.22;1.40;;;;;;;27.18;28.29;97505.25;10070483;29;20049;-82
2022/06/05 17:30:06;;;;;;;2.00;1.38;;;;;;;27.11;29.11;97523.88;10082815;29;20052;-82
2022/06/05 17:35:59;;;;;;;3.20;1.58;;;;;;;26.84;29.87;97517.44;10083342;29;20077;-81
2022/06/05 17:41:44;;;;;;;2.83;1.75;;;;;;;26.64;30.02;97514.59;10082832;29;20060;-84
2022/06/05 17:47:27;;;;;;;2.40;1.52;;;;;;;26.33;30.69;97500.19;10069886;29;20419;-86
2022/06/05 17:52:52;;;;;;;8.35;1.75;;;;;;;26.14;30.63;97490.16;10074774;29;20111;-89
2022/06/05 17:58:21;;;;;;;4.60;1.80;;;;;;;25.99;30.96;97483.00;10064786;29;20116;-83
2022/06/05 18:03:43;;;;;;;4.55;1.70;;;;;;;25.89;31.65;97484.41;10063756;29;20061;-86
2022/06/05 18:09:13;;;;;;;;;;;;;;;25.85;32.10;97490.09;10049966;29;20076;-89
2022/06/05 18:14:49;;;;;;;5.15;2.00;;;;;;;25.80;31.96;97511.53;10076490;29;20330;-79
2022/06/05 18:20:19;;;;;;;5.57;2.47;;;;;;;25.65;32.51;97518.56;10064626;29;20410;-80
2022/06/05 18:25:45;;;;;;;6.00;2.53;;;;;;;25.45;33.21;97535.63;10060004;29;20132;-80
2022/06/05 18:31:13;;;;;;;3.10;1.92;;;;;;;25.29;33.58;97541.97;10063686;29;20087;-80
2022/06/05 18:42:22;;;;;;;3.80;2.28;;;;;;;25.10;33.74;97567.53;10088139;29;20068;-78
2022/06/05 18:47:49;;;;;;;4.35;2.28;;;;;;;24.93;34.76;97565.22;10063287;29;20404;-79
2022/06/05 18:53:21;;;;;;;3.58;2.17;;;;;;;24.72;35.70;97553.66;10088581;29;20056;-79
2022/06/05 18:58:42;;;;;;;4.88;2.42;;;;;;;24.63;35.59;97563.56;10075043;29;20381;-79
2022/06/05 19:04:11;;;;;;;3.90;2.60;;;;;;;24.53;35.91;97569.16;10073598;29;20144;-79
2022/06/05 19:09:32;;;;;;;6.07;2.70;;;;;;;24.49;36.12;97580.53;10062030;29;20053;-79
2022/06/05 19:14:58;;;;;;;4.32;2.90;;;;;;;24.48;36.41;97587.66;10074039;29;20504;-80
2022/06/05 19:20:32;;;;;;;4.80;2.55;;;;;;;24.43;36.87;97584.03;10062252;29;20056;-79
2022/06/05 19:25:53;;;;;;;3.17;2.70;;;;;;;24.40;36.55;97587.56;10074466;29;20060;-79
2022/06/05 19:31:26;;;;;;;4.75;2.67;;;;;;;24.27;37.07;97595.97;10060556;29;20065;-81
2022/06/05 19:37:16;;;;;;;5.60;3.30;;;;;;;24.17;37.11;97600.84;10060831;29;20064;-79
2022/06/05 19:42:44;;;;;;;3.38;3.00;;;;;;;23.97;37.47;97604.88;10074764;29;20528;-84
2022/06/05 19:48:24;;;;;;;5.15;3.60;;;;;;;23.87;37.86;97604.75;10061297;29;20118;-91
2022/06/05 19:53:47;;;;;;;5.82;3.10;;;;;;;23.80;38.10;97616.75;10059416;29;20053;-92
2022/06/05 19:59:35;;;;;;;4.18;3.10;;;;;;;23.76;38.34;97613.88;10033267;29;20065;-85
2022/06/05 20:04:57;;;;;;;4.00;3.00;;;;;;;23.72;38.71;97628.03;10070149;29;20516;-81
2022/06/05 20:10:25;;;;;;;5.53;3.23;;;;;;;23.67;38.67;97630.13;10069904;29;20056;-82
2022/06/05 20:15:46;;;;;;;5.25;3.20;;;;;;;23.74;38.31;97623.13;10054396;29;20057;-82
2022/06/05 20:21:21;;;;;;;4.05;3.03;;;;;;;23.68;38.57;97623.72;10054698;29;20061;-84
2022/06/05 20:26:46;;;;;;;3.60;3.30;;;;;;;23.61;38.65;97621.47;10079311;29;20493;-77
2022/06/05 20:32:07;;;;;;;5.70;2.88;;;;;;;23.53;38.97;97613.50;10054406;29;20064;-83
2022/06/05 20:37:30;;;;;;;3.83;3.20;;;;;;;23.53;38.98;97609.94;10067000;29;20087;-81
2022/06/05 20:42:55;;;;;;;3.53;2.85;;;;;;;23.49;39.20;97602.06;10052365;29;20057;-84
2022/06/05 20:48:25;;;;;;;5.60;3.20;;;;;;;23.50;39.34;97597.81;10042330;29;20105;-79
2022/06/05 20:53:48;;;;;;;3.92;2.85;;;;;;;23.59;39.30;97592.97;10055887;29;20049;-78
2022/06/05 20:59:11;;;;;;;5.40;2.85;;;;;;;23.51;39.30;97584.28;10057592;29;20064;-78
2022/06/05 21:21:52;;;;;;;3.70;2.90;;;;;;;23.20;39.58;97546.13;10073290;29;20109;-78
2022/06/05 21:27:24;;;;;;;4.55;3.05;;;;;;;23.11;39.73;97536.72;10059783;29;20057;-78
2022/06/05 21:33:02;;;;;;;4.78;2.97;;;;;;;23.07;39.96;97548.78;10065589;29;20057;-78
2022/06/05 21:38:35;;;;;;;4.72;3.10;;;;;;;23.02;39.93;97541.59;10067187;29;20056;-78
2022/06/05 21:43:56;;;;;;;3.30;3.00;;;;;;;23.01;40.05;97545.84;10078030;29;20412;-78
2022/06/05 21:49:16;;;;;;;3.63;3.10;;;;;;;22.98;40.07;97537.97;10064315;29;20131;-78
2022/06/05 21:54:41;;;;;;;3.67;3.15;;;;;;;22.88;40.18;97544.22;10064322;29;20057;-78
2022/06/05 22:00:04;;;;;;;4.70;3.10;;;;;;;22.83;40.42;97542.69;10064413;29;20431;-78
2022/06/05 22:05:33;;;;;;;3.58;3.05;;;;;;;22.81;40.50;97551.19;10067074;29;20109;-78
2022/06/05 22:10:54;;;;;;;4.38;3.10;;;;;;;22.77;40.69;97534.75;10077006;29;20057;-77
2022/06/05 22:16:14;;;;;;;4.82;3.30;;;;;;;22.72;40.47;97535.38;10076248;29;20049;-78
2022/06/05 22:21:35;;;;;;;6.07;3.15;;;;;;;22.60;41.00;97601.31;10076019;29;20057;-78
2022/06/05 22:26:56;;;;;;;4.28;3.33;;;;;;;22.60;41.45;97600.59;10075822;29;20049;-78
2022/06/05 22:32:17;;;;;;;4.35;3.13;;;;;;;22.54;43.15;97587.72;10062520;29;20073;-78
2022/06/05 22:37:38;;;;;;;5.72;2.95;;;;;;;22.38;43.01;97613.00;10074846;29;20060;-78
2022/06/05 22:42:59;;;;;;;3.55;3.05;;;;;;;22.11;47.07;97606.09;10075352;29;20061;-78
2022/06/05 22:48:20;;;;;;;3.90;2.78;;;;;;;21.86;48.38;97590.63;10074029;29;20145;-79
2022/06/05 22:53:40;;;;;;;5.15;2.60;;;;;;;21.59;50.43;97583.66;10059129;29;20053;-78
2022/06/05 22:59:02;;;;;;;5.50;2.47;;;;;;;21.37;51.74;97586.03;10059356;29;20129;-78
2022/06/05 23:04:23;;;;;;;4.25;2.50;;;;;;;21.26;51.96;97565.19;10060565;29;20063;-78
2022/06/05 23:09:43;;;;;;;4.97;2.55;;;;;;;21.19;53.60;97572.09;10061587;29;20117;-75
2022/06/05 23:15:04;;;;;;;3.17;2.30;;;;;;;21.11;55.94;97566.94;10061697;29;20057;-78
2022/06/05 23:20:25;;;;;;;8.32;2.47;;;;;;;21.08;55.36;97584.63;10073974;29;20057;-75
2022/06/05 23:25:46;;;;;;;2.95;1.90;;;;;;;21.03;55.86;97595.13;10074069;29;20061;-76
2022/06/05 23:31:08;;;;;;;9.23;2.88;;;;;;;20.97;56.67;97568.75;10086662;29;20518;-76
2022/06/05 23:36:29;;;;;;;4.73;2.60;;;;;;;20.64;59.76;97590.63;10061199;29;20057;-77
2022/06/05 23:41:49;;;;;;;4.07;2.08;;;;;;;20.42;59.38;97582.25;10060384;29;20091;-77
2022/06/05 23:47:10;;;;;;;4.47;1.35;;;;;;;20.25;60.74;97583.19;10073367;29;20057;-76
2022/06/05 23:52:30;;;;;;;2.85;1.48;;;;;;;20.07;61.22;97577.75;10060060;29;20072;-79
2022/06/05 23:57:51;;;;;;;3.50;1.60;;;;;;;20.04;61.50;97579.09;10060212;29;20060;-78
